Time;durP1;ratioP1;P1;durP2;ratioP2;P2;SDS_P1;SDS_P2;PMS_P1;PMS_P2;Temp;Humidity;BMP_temperature;BMP_pressure;BME280_temperature;BME280_humidity;BME280_pressure;Samples;Min_cycle;Max_cycle;Signal;HPM_P1;HPM_P2
2023/10/22 00:00:15;;;;;;;100.38;82.75;;;27.40;99.90;;;;;;5015266;28;20360;-63
2023/10/22 00:02:42;;;;;;;109.55;93.18;;;27.30;99.90;;;;;;5015212;28;20106;-62
2023/10/22 00:05:09;;;;;;;110.38;96.55;;;27.40;99.90;;;;;;5015252;28;20014;-61
2023/10/22 00:07:35;;;;;;;114.22;93.95;;;27.40;99.90;;;;;;5015175;28;20021;-61
2023/10/22 00:10:03;;;;;;;119.88;95.90;;;27.40;99.90;;;;;;5014928;28;20022;-61
2023/10/22 00:12:29;;;;;;;120.13;97.65;;;27.50;99.90;;;;;;5015124;28;20534;-61
2023/10/22 00:14:56;;;;;;;125.97;104.75;;;27.50;99.90;;;;;;5015082;28;20042;-61
2023/10/22 00:17:23;;;;;;;118.00;98.38;;;27.50;99.90;;;;;;5014975;28;20029;-61
2023/10/22 00:19:49;;;;;;;148.82;118.55;;;27.50;99.90;;;;;;5015067;28;20026;-61
2023/10/22 00:22:16;;;;;;;168.25;128.85;;;27.50;99.90;;;;;;5014868;28;20474;-60
2023/10/22 00:24:43;;;;;;;160.55;131.30;;;27.50;99.90;;;;;;5014675;28;20026;-62
2023/10/22 00:27:10;;;;;;;147.55;114.70;;;27.50;99.90;;;;;;5014394;28;20044;-61
2023/10/22 00:29:37;;;;;;;143.88;119.75;;;27.50;99.90;;;;;;5014986;28;20033;-61
2023/10/22 00:32:03;;;;;;;134.85;107.90;;;27.50;99.90;;;;;;5014603;28;20029;-61
2023/10/22 00:34:30;;;;;;;142.50;117.05;;;27.60;99.90;;;;;;5014678;28;20105;-61
2023/10/22 00:36:56;;;;;;;161.20;122.60;;;27.60;99.90;;;;;;5014561;28;20022;-62
2023/10/22 00:39:23;;;;;;;173.55;138.15;;;27.60;99.90;;;;;;5014450;28;20034;-61
2023/10/22 00:41:49;;;;;;;179.82;141.88;;;27.70;99.90;;;;;;5014533;28;20028;-62
2023/10/22 00:44:16;;;;;;;173.65;139.63;;;27.70;99.90;;;;;;5013954;28;20025;-62
2023/10/22 00:46:46;;;;;;;163.65;134.38;;;27.70;99.90;;;;;;5014295;28;20021;-61
2023/10/22 00:49:13;;;;;;;165.75;108.10;;;;;;;;;;5014502;28;20064;-61
2023/10/22 00:51:40;;;;;;;158.20;108.13;;;;;;;;;;5014753;28;20529;-62
2023/10/22 00:54:07;;;;;;;169.98;111.95;;;27.80;99.90;;;;;;5014266;28;20069;-62
2023/10/22 00:56:35;;;;;;;168.07;113.88;;;27.80;99.90;;;;;;5013936;28;20475;-62
2023/10/22 00:59:02;;;;;;;166.65;112.28;;;27.90;99.90;;;;;;5014300;28;20104;-62
2023/10/22 01:01:29;;;;;;;167.18;114.88;;;27.90;99.90;;;;;;5013953;28;20064;-61
2023/10/22 01:03:56;;;;;;;170.60;114.97;;;27.90;99.90;;;;;;5014164;28;20028;-62
2023/10/22 01:06:22;;;;;;;182.02;120.82;;;27.90;99.90;;;;;;5014101;28;20549;-62
2023/10/22 01:08:50;;;;;;;190.75;130.70;;;27.90;99.90;;;;;;5013911;28;20485;-62
2023/10/22 01:11:16;;;;;;;192.05;128.57;;;27.90;99.90;;;;;;5014086;28;20540;-62
2023/10/22 01:13:43;;;;;;;185.23;126.43;;;28.00;99.90;;;;;;4999811;28;20376;-62
2023/10/22 01:16:09;;;;;;;183.82;123.10;;;28.00;99.90;;;;;;5011125;28;20053;-61
2023/10/22 01:18:36;;;;;;;194.40;124.43;;;28.10;99.90;;;;;;5013681;28;20026;-62
2023/10/22 01:21:03;;;;;;;203.55;136.85;;;28.10;99.90;;;;;;5013769;28;20064;-62
2023/10/22 01:23:35;;;;;;;209.05;140.02;;;28.20;99.90;;;;;;5013762;28;20014;-62
2023/10/22 01:26:02;;;;;;;209.27;142.23;;;28.20;99.90;;;;;;5013979;28;20017;-61
2023/10/22 01:28:29;;;;;;;204.88;135.68;;;28.30;99.90;;;;;;5013678;28;20099;-61
2023/10/22 01:30:57;;;;;;;209.73;132.60;;;28.20;99.90;;;;;;5013632;28;20021;-63
2023/10/22 01:33:24;;;;;;;196.98;133.82;;;28.30;99.90;;;;;;5013559;28;20018;-61
2023/10/22 01:35:51;;;;;;;203.13;132.80;;;28.30;99.90;;;;;;5014037;28;20076;-62
2023/10/22 01:38:17;;;;;;;228.43;148.73;;;28.40;99.90;;;;;;5013459;28;20021;-61
2023/10/22 01:40:44;;;;;;;230.85;148.38;;;28.60;99.90;;;;;;5013719;28;20097;-61
2023/10/22 01:43:10;;;;;;;225.20;146.75;;;28.60;99.90;;;;;;5013841;28;20524;-61
2023/10/22 01:45:37;;;;;;;217.95;137.02;;;28.70;99.90;;;;;;5013489;28;20030;-61
2023/10/22 01:48:04;;;;;;;240.15;151.80;;;28.80;99.90;;;;;;5013677;28;20018;-62
2023/10/22 01:50:30;;;;;;;326.45;216.05;;;28.90;99.90;;;;;;5013601;28;20021;-61
2023/10/22 01:52:57;;;;;;;327.15;213.70;;;29.00;99.90;;;;;;5013084;28;20088;-62
2023/10/22 01:55:23;;;;;;;364.88;243.45;;;29.10;99.90;;;;;;5012509;28;20026;-62
2023/10/22 01:57:50;;;;;;;329.35;216.20;;;29.20;99.90;;;;;;5013247;28;20537;-62
2023/10/22 02:00:17;;;;;;;266.55;174.10;;;29.30;99.90;;;;;;5013149;28;20110;-63
2023/10/22 02:02:44;;;;;;;289.05;198.73;;;29.40;99.90;;;;;;5007891;28;20040;-62
2023/10/22 02:05:10;;;;;;;301.20;200.00;;;29.50;99.90;;;;;;5013311;28;20021;-65
2023/10/22 02:07:40;;;;;;;302.02;203.55;;;29.50;99.90;;;;;;5013100;28;20108;-65
2023/10/22 02:10:08;;;;;;;249.73;163.98;;;29.50;99.90;;;;;;5008764;28;20022;-64
2023/10/22 02:12:35;;;;;;;232.88;154.73;;;29.50;99.90;;;;;;5013278;28;20026;-63
2023/10/22 02:15:02;;;;;;;235.48;148.95;;;29.60;99.90;;;;;;5013016;28;20084;-64
2023/10/22 02:17:28;;;;;;;246.02;159.88;;;29.60;99.90;;;;;;5013529;28;20092;-63
2023/10/22 02:19:55;;;;;;;279.48;173.50;;;29.60;99.90;;;;;;5013516;28;20022;-64
2023/10/22 02:22:21;;;;;;;289.55;182.60;;;29.60;99.90;;;;;;5012869;28;20112;-64
2023/10/22 02:24:48;;;;;;;277.13;182.52;;;29.70;99.90;;;;;;5013098;28;20014;-64
2023/10/22 02:27:15;;;;;;;328.73;224.93;;;29.70;99.90;;;;;;5013006;28;20471;-63
2023/10/22 02:29:41;;;;;;;213.93;140.15;;;29.70;99.90;;;;;;5012875;28;20022;-63
2023/10/22 02:32:08;;;;;;;212.13;137.43;;;29.80;99.90;;;;;;5013013;28;20026;-64
2023/10/22 02:34:36;;;;;;;204.80;133.50;;;29.80;99.90;;;;;;5012864;28;20034;-64
2023/10/22 02:37:03;;;;;;;224.52;135.38;;;29.90;99.90;;;;;;5012883;28;20105;-64
2023/10/22 02:39:30;;;;;;;194.18;125.88;;;29.90;99.90;;;;;;5013016;28;20335;-63
2023/10/22 02:41:57;;;;;;;191.32;119.63;;;30.00;99.90;;;;;;5012699;28;20022;-64
2023/10/22 02:44:24;;;;;;;225.40;139.52;;;30.10;99.90;;;;;;5007643;28;20100;-64
2023/10/22 02:46:50;;;;;;;181.52;113.63;;;30.10;99.90;;;;;;5012851;28;20037;-63
2023/10/22 02:49:17;;;;;;;195.20;125.28;;;30.20;99.90;;;;;;5012631;28;20032;-64
2023/10/22 02:51:43;;;;;;;158.75;102.97;;;30.20;99.90;;;;;;5012768;28;20033;-64
2023/10/22 02:54:10;;;;;;;200.55;132.55;;;30.30;99.90;;;;;;5012627;28;20069;-64
2023/10/22 02:56:39;;;;;;;177.65;115.43;;;30.30;99.90;;;;;;5012844;28;20056;-65
2023/10/22 02:59:06;;;;;;;161.63;105.25;;;30.40;99.90;;;;;;5013317;28;20049;-65
2023/10/22 03:01:32;;;;;;;143.77;96.43;;;30.50;99.90;;;;;;5013426;28;20018;-65
2023/10/22 03:03:59;;;;;;;193.65;129.55;;;30.60;99.90;;;;;;5013274;28;20026;-64
2023/10/22 03:06:26;;;;;;;187.98;123.13;;;30.60;99.90;;;;;;5013238;28;20073;-63
2023/10/22 03:08:52;;;;;;;178.13;120.30;;;30.70;99.90;;;;;;5016886;28;20072;-63
2023/10/22 03:11:19;;;;;;;176.48;116.90;;;30.70;99.90;;;;;;5017107;28;20552;-63
2023/10/22 03:13:48;;;;;;;171.55;112.30;;;30.70;99.90;;;;;;5001429;28;20041;-64
2023/10/22 03:16:15;;;;;;;136.70;93.40;;;30.80;99.90;;;;;;5014594;28;20078;-64
2023/10/22 03:18:44;;;;;;;128.40;82.88;;;30.80;99.90;;;;;;5016801;28;20121;-64
2023/10/22 03:21:12;;;;;;;132.38;85.80;;;30.80;99.90;;;;;;5016898;28;20607;-65
2023/10/22 03:23:41;;;;;;;135.18;87.95;;;30.80;99.90;;;;;;5016643;28;20049;-64
2023/10/22 03:26:18;;;;;;;129.30;89.00;;;30.90;99.90;;;;;;5016859;28;20026;-64
2023/10/22 03:28:46;;;;;;;124.72;85.22;;;30.90;99.90;;;;;;5013088;28;20523;-63
2023/10/22 03:31:13;;;;;;;127.68;85.88;;;31.00;99.90;;;;;;5016532;28;20022;-63
2023/10/22 03:33:40;;;;;;;145.88;94.95;;;31.00;99.90;;;;;;5016724;28;20071;-63
2023/10/22 03:36:09;;;;;;;141.80;94.82;;;31.00;99.90;;;;;;5016250;28;20026;-63
2023/10/22 03:38:35;;;;;;;143.15;89.75;;;31.00;99.90;;;;;;5016402;28;20022;-64
2023/10/22 03:41:06;;;;;;;139.68;91.57;;;31.10;99.90;;;;;;5016395;28;20030;-65
2023/10/22 03:43:36;;;;;;;130.95;90.30;;;31.20;99.90;;;;;;5016237;28;20026;-67
2023/10/22 03:46:03;;;;;;;138.98;90.15;;;31.20;99.90;;;;;;5016215;28;20018;-63
2023/10/22 03:48:30;;;;;;;152.93;101.63;;;31.20;99.90;;;;;;5010153;28;20024;-64
2023/10/22 03:50:57;;;;;;;162.38;104.63;;;31.20;99.90;;;;;;5009602;28;20099;-63
2023/10/22 03:53:23;;;;;;;167.55;108.22;;;31.20;99.90;;;;;;5015955;28;20119;-62
2023/10/22 03:55:50;;;;;;;161.18;103.47;;;31.30;99.90;;;;;;5015941;28;20072;-63
2023/10/22 03:58:17;;;;;;;162.20;107.10;;;31.40;99.90;;;;;;5010677;28;20463;-63
2023/10/22 04:00:44;;;;;;;153.57;101.13;;;31.40;99.90;;;;;;5015860;28;20065;-64
2023/10/22 04:03:11;;;;;;;156.07;100.25;;;31.50;99.90;;;;;;5015557;28;20511;-62
2023/10/22 04:05:37;;;;;;;137.02;91.28;;;31.60;99.90;;;;;;5015748;28;20060;-62
2023/10/22 04:08:04;;;;;;;133.75;88.40;;;31.60;99.90;;;;;;5015127;28;20045;-62
2023/10/22 04:10:31;;;;;;;149.98;95.15;;;31.60;99.90;;;;;;5015103;28;20022;-62
2023/10/22 04:12:58;;;;;;;147.25;94.53;;;31.70;99.90;;;;;;5014824;28;20108;-62
2023/10/22 04:15:24;;;;;;;142.15;90.32;;;31.70;99.90;;;;;;5014791;28;20487;-64
2023/10/22 04:17:51;;;;;;;144.15;92.25;;;31.70;99.90;;;;;;5014472;28;20049;-63
2023/10/22 04:20:17;;;;;;;132.15;87.80;;;31.80;99.90;;;;;;5014263;28;20022;-64
2023/10/22 04:22:44;;;;;;;146.63;93.13;;;31.90;99.90;;;;;;5014814;28;20438;-64
2023/10/22 04:25:13;;;;;;;144.70;95.28;;;31.90;99.90;;;;;;5014873;28;20014;-65
2023/10/22 04:27:40;;;;;;;135.55;89.45;;;31.90;99.90;;;;;;5009367;28;20018;-64
2023/10/22 04:30:07;;;;;;;132.70;86.30;;;32.00;99.90;;;;;;5014831;28;20022;-64
2023/10/22 04:32:34;;;;;;;135.65;87.00;;;32.00;99.90;;;;;;5014734;28;20084;-64
2023/10/22 04:35:01;;;;;;;132.85;88.88;;;32.00;99.90;;;;;;5009671;28;20425;-64
2023/10/22 04:37:28;;;;;;;144.30;90.43;;;32.10;99.90;;;;;;5013361;28;20022;-64
2023/10/22 04:39:57;;;;;;;136.30;88.95;;;32.10;99.90;;;;;;5010766;28;20084;-64
2023/10/22 04:42:25;;;;;;;137.43;89.13;;;32.20;99.90;;;;;;5013515;28;20030;-63
2023/10/22 04:44:51;;;;;;;140.98;85.00;;;32.20;99.90;;;;;;5013834;28;20443;-63
2023/10/22 04:47:18;;;;;;;139.27;88.82;;;32.30;99.90;;;;;;5013501;28;20056;-63
2023/10/22 04:49:44;;;;;;;143.23;90.43;;;32.30;99.90;;;;;;5014899;28;20079;-63
2023/10/22 04:52:21;;;;;;;130.45;88.47;;;32.30;99.90;;;;;;5015039;28;20021;-63
2023/10/22 04:54:47;;;;;;;143.45;92.40;;;32.30;99.90;;;;;;5014811;28;20030;-63
2023/10/22 04:57:14;;;;;;;142.70;93.32;;;32.40;99.90;;;;;;5014819;28;20026;-63
2023/10/22 04:59:41;;;;;;;135.88;92.07;;;32.40;99.90;;;;;;5015052;28;20478;-64
2023/10/22 05:02:07;;;;;;;150.07;99.40;;;32.50;99.90;;;;;;5014640;28;20038;-63
2023/10/22 05:04:34;;;;;;;148.07;100.35;;;32.50;99.90;;;;;;5014390;28;20451;-63
2023/10/22 05:07:00;;;;;;;160.45;104.07;;;32.40;99.90;;;;;;5014812;28;20599;-63
2023/10/22 05:09:27;;;;;;;159.70;103.28;;;32.40;99.90;;;;;;5014864;28;20049;-64
2023/10/22 05:11:53;;;;;;;165.77;106.55;;;32.50;99.90;;;;;;5014323;28;20112;-64
2023/10/22 05:14:20;;;;;;;170.70;104.65;;;32.50;99.90;;;;;;5014539;28;20045;-63
2023/10/22 05:16:47;;;;;;;171.77;108.63;;;32.60;99.90;;;;;;5014484;28;20394;-63
2023/10/22 05:19:14;;;;;;;149.85;100.78;;;32.50;99.90;;;;;;5000181;28;20034;-64
2023/10/22 05:21:40;;;;;;;157.75;103.07;;;32.50;99.90;;;;;;4977151;28;20488;-63
2023/10/22 05:24:09;;;;;;;161.23;102.90;;;32.50;99.90;;;;;;4975304;28;20052;-63
2023/10/22 05:26:36;;;;;;;153.75;102.55;;;32.50;99.90;;;;;;4975111;28;20443;-64
2023/10/22 05:29:03;;;;;;;152.30;102.53;;;32.50;99.90;;;;;;4975846;28;20028;-63
2023/10/22 05:31:30;;;;;;;160.60;105.38;;;32.60;99.90;;;;;;4975309;28;20415;-63
2023/10/22 05:33:56;;;;;;;152.30;96.43;;;32.60;99.90;;;;;;4975061;28;20058;-63
2023/10/22 05:36:23;;;;;;;149.13;95.75;;;32.70;99.90;;;;;;4975069;28;20023;-64
2023/10/22 05:38:50;;;;;;;151.50;97.28;;;32.70;99.90;;;;;;4975270;28;20038;-63
2023/10/22 05:41:28;;;;;;;133.57;87.38;;;32.70;99.90;;;;;;4974830;28;20031;-63
2023/10/22 05:44:00;;;;;;;131.52;85.82;;;32.80;99.90;;;;;;4975232;28;20030;-63
2023/10/22 05:46:26;;;;;;;;;;;32.80;99.90;;;;;;4975514;28;20023;-64
2023/10/22 05:48:53;;;;;;;133.48;86.95;;;32.80;99.90;;;;;;4974892;28;19906;-63
2023/10/22 05:51:20;;;;;;;138.52;91.03;;;32.80;99.90;;;;;;4974868;28;20027;-64
2023/10/22 05:53:47;;;;;;;134.38;87.40;;;32.90;99.90;;;;;;4974820;28;20030;-63
2023/10/22 05:56:14;;;;;;;124.95;82.07;;;33.00;99.90;;;;;;4974625;28;20034;-63
2023/10/22 05:58:41;;;;;;;128.38;87.28;;;33.10;99.90;;;;;;4974786;28;20427;-63
2023/10/22 06:01:09;;;;;;;123.13;83.18;;;33.10;99.90;;;;;;4977071;28;20030;-64
2023/10/22 06:03:36;;;;;;;180.00;123.30;;;33.20;99.90;;;;;;4993769;28;20150;-63
2023/10/22 06:06:03;;;;;;;142.93;95.90;;;33.20;99.90;;;;;;4994392;28;20114;-63
2023/10/22 06:08:29;;;;;;;193.77;133.10;;;33.20;99.90;;;;;;4983297;28;20512;-64
2023/10/22 06:10:56;;;;;;;135.63;92.10;;;33.30;99.90;;;;;;4974572;28;20023;-64
2023/10/22 06:13:23;;;;;;;132.50;85.00;;;33.40;99.90;;;;;;4991532;28;20026;-64
2023/10/22 06:15:55;;;;;;;122.88;82.13;;;33.40;99.90;;;;;;4980903;28;20130;-64
2023/10/22 06:18:21;;;;;;;126.57;83.82;;;33.40;99.90;;;;;;4975694;28;20019;-64
2023/10/22 06:20:48;;;;;;;177.82;105.75;;;33.60;99.90;;;;;;4984885;28;20026;-64
2023/10/22 06:23:15;;;;;;;149.82;96.57;;;33.70;99.90;;;;;;4994066;28;20035;-64
2023/10/22 06:25:44;;;;;;;145.63;93.68;;;33.60;99.90;;;;;;4985174;28;20023;-64
2023/10/22 06:28:11;;;;;;;133.38;84.38;;;33.60;99.90;;;;;;4992353;28;20098;-67
2023/10/22 06:30:38;;;;;;;128.38;84.07;;;33.80;99.90;;;;;;4993921;28;20379;-67
2023/10/22 06:33:04;;;;;;;132.30;82.80;;;33.90;99.90;;;;;;4993583;28;20026;-67
2023/10/22 06:35:31;;;;;;;204.68;135.43;;;33.90;99.90;;;;;;4993626;28;20081;-67
2023/10/22 06:37:58;;;;;;;168.27;110.95;;;33.90;99.90;;;;;;4993473;28;20494;-66
2023/10/22 06:40:25;;;;;;;298.70;208.60;;;33.90;99.90;;;;;;4993525;28;20092;-66
2023/10/22 06:42:51;;;;;;;136.00;89.05;;;33.90;99.90;;;;;;4997120;28;20119;-67
2023/10/22 06:45:18;;;;;;;132.15;84.78;;;34.00;99.90;;;;;;4997520;28;20105;-67
2023/10/22 06:47:46;;;;;;;134.18;84.78;;;34.00;99.90;;;;;;4997702;28;20391;-66
2023/10/22 06:50:14;;;;;;;140.27;88.05;;;34.10;99.90;;;;;;4997626;28;20034;-67
2023/10/22 06:52:43;;;;;;;129.05;85.20;;;34.10;99.90;;;;;;4997361;28;20034;-67
2023/10/22 06:55:10;;;;;;;139.55;85.78;;;34.20;99.90;;;;;;4997641;28;20030;-67
2023/10/22 06:57:38;;;;;;;137.13;86.78;;;34.30;99.90;;;;;;4997687;28;20073;-67
2023/10/22 07:00:08;;;;;;;134.43;87.97;;;34.30;99.90;;;;;;4997330;28;20038;-67
2023/10/22 07:02:34;;;;;;;127.55;84.68;;;34.30;99.90;;;;;;4997251;28;20504;-67
2023/10/22 07:05:01;;;;;;;123.57;83.85;;;34.30;99.90;;;;;;4997097;28;20029;-67
2023/10/22 07:07:29;;;;;;;128.68;86.45;;;34.30;99.90;;;;;;5011464;28;20449;-67
2023/10/22 07:09:56;;;;;;;128.75;84.18;;;34.30;99.90;;;;;;5016637;28;20105;-66
2023/10/22 07:12:22;;;;;;;276.67;192.57;;;34.30;99.60;;;;;;5016688;28;20034;-68
2023/10/22 07:14:49;;;;;;;156.07;102.55;;;34.30;99.20;;;;;;5016305;28;20046;-65
2023/10/22 07:17:15;;;;;;;198.98;139.13;;;34.30;98.90;;;;;;5016501;28;20034;-64
2023/10/22 07:19:42;;;;;;;142.10;96.25;;;34.30;98.90;;;;;;5011750;28;20026;-64
2023/10/22 07:22:09;;;;;;;138.55;90.30;;;34.30;98.30;;;;;;4996942;28;20081;-64
2023/10/22 07:24:35;;;;;;;135.70;91.72;;;34.30;99.00;;;;;;4997106;28;20105;-64
2023/10/22 07:27:02;;;;;;;132.20;84.85;;;34.30;98.90;;;;;;4996781;28;20471;-64
2023/10/22 07:29:28;;;;;;;133.43;86.85;;;34.30;99.00;;;;;;4996806;28;20018;-64
2023/10/22 07:31:55;;;;;;;130.75;86.72;;;34.30;98.90;;;;;;4996485;28;20023;-64
2023/10/22 07:34:21;;;;;;;138.70;89.57;;;34.30;99.00;;;;;;4996660;28;20514;-65
2023/10/22 07:36:48;;;;;;;143.80;90.43;;;34.40;98.60;;;;;;4996643;28;20026;-65
2023/10/22 07:39:15;;;;;;;138.40;90.03;;;34.40;97.40;;;;;;4996361;28;20114;-65
2023/10/22 07:41:41;;;;;;;130.38;87.00;;;34.50;96.40;;;;;;5013612;28;20034;-65
2023/10/22 07:44:09;;;;;;;131.15;86.80;;;34.50;97.00;;;;;;5015655;28;20463;-63
2023/10/22 07:46:35;;;;;;;132.80;82.85;;;34.50;97.20;;;;;;5015231;28;20080;-64
2023/10/22 07:49:02;;;;;;;132.88;87.50;;;34.60;97.90;;;;;;5015605;28;20022;-64
2023/10/22 07:51:28;;;;;;;143.07;90.65;;;34.60;98.30;;;;;;5015772;28;20034;-65
2023/10/22 07:53:55;;;;;;;180.48;117.00;;;34.60;96.40;;;;;;5009430;28;20440;-65
2023/10/22 07:56:21;;;;;;;212.27;142.50;;;34.60;96.60;;;;;;5016235;28;20029;-65
2023/10/22 07:58:48;;;;;;;193.65;132.35;;;34.60;97.30;;;;;;5016035;28;20382;-64
2023/10/22 08:01:15;;;;;;;148.70;94.13;;;34.60;97.10;;;;;;5010039;28;20084;-64
2023/10/22 08:03:41;;;;;;;143.25;94.93;;;34.60;96.50;;;;;;5014348;28;20041;-65
2023/10/22 08:06:08;;;;;;;150.98;95.00;;;34.60;96.10;;;;;;5014059;28;20548;-66
2023/10/22 08:08:35;;;;;;;164.52;102.07;;;34.60;95.40;;;;;;5014251;28;20041;-65
2023/10/22 08:11:03;;;;;;;183.63;116.30;;;34.50;95.30;;;;;;5002983;28;20077;-65
2023/10/22 08:13:30;;;;;;;160.07;97.57;;;34.50;94.70;;;;;;4992513;28;20038;-67
2023/10/22 08:15:56;;;;;;;157.48;102.10;;;34.40;94.90;;;;;;4985944;28;20053;-65
2023/10/22 08:18:23;;;;;;;178.80;111.95;;;34.40;95.70;;;;;;4996866;28;20079;-64
2023/10/22 08:20:50;;;;;;;163.23;96.50;;;34.40;94.60;;;;;;5005164;28;20034;-62
2023/10/22 08:23:17;;;;;;;146.63;94.18;;;34.40;93.60;;;;;;5007333;28;20471;-61
2023/10/22 08:25:53;;;;;;;148.00;94.55;;;34.40;94.60;;;;;;5011718;28;20092;-64
2023/10/22 08:28:19;;;;;;;142.52;91.25;;;34.40;95.40;;;;;;5000347;28;20174;-63
2023/10/22 08:30:49;;;;;;;157.18;97.35;;;34.40;95.10;;;;;;5003762;28;20026;-65
2023/10/22 08:33:17;;;;;;;149.30;92.40;;;34.40;94.70;;;;;;4982924;28;20039;-63
2023/10/22 08:35:44;;;;;;;154.48;92.65;;;34.30;95.00;;;;;;4988720;28;20117;-65
2023/10/22 08:38:10;;;;;;;142.82;95.75;;;34.30;94.40;;;;;;4980467;28;20030;-66
2023/10/22 08:40:41;;;;;;;136.13;86.10;;;34.30;94.70;;;;;;4976085;28;20030;-65
2023/10/22 08:43:18;;;;;;;142.63;85.72;;;34.30;94.60;;;;;;4989038;28;20034;-64
2023/10/22 08:45:51;;;;;;;149.10;87.40;;;34.40;94.70;;;;;;4994762;28;20531;-64
2023/10/22 08:48:20;;;;;;;139.45;87.18;;;34.40;94.20;;;;;;4992959;28;20113;-65
2023/10/22 08:50:47;;;;;;;135.32;86.00;;;34.40;94.30;;;;;;4993159;28;20080;-64
2023/10/22 08:53:15;;;;;;;124.85;82.05;;;34.40;94.20;;;;;;4992714;28;20043;-65
2023/10/22 08:55:46;;;;;;;134.80;83.55;;;34.40;94.20;;;;;;4991364;28;20026;-65
2023/10/22 08:58:19;;;;;;;133.57;85.00;;;34.40;93.50;;;;;;4991439;28;20026;-64
2023/10/22 09:00:47;;;;;;;138.57;87.53;;;34.40;94.20;;;;;;4992886;28;20034;-66
2023/10/22 09:03:18;;;;;;;123.53;83.45;;;34.40;93.30;;;;;;4993145;28;20093;-66
2023/10/22 09:05:46;;;;;;;138.95;89.57;;;34.40;93.70;;;;;;4993624;28;20030;-66
2023/10/22 09:08:14;;;;;;;152.85;95.20;;;34.40;94.50;;;;;;4995391;28;20388;-66
2023/10/22 09:10:41;;;;;;;134.88;86.03;;;34.40;93.90;;;;;;4994634;28;20026;-66
2023/10/22 09:13:07;;;;;;;145.32;91.20;;;34.30;94.00;;;;;;4994790;28;20090;-65
2023/10/22 09:15:40;;;;;;;134.57;89.88;;;34.30;93.90;;;;;;4994728;28;20109;-66
2023/10/22 09:18:07;;;;;;;136.55;91.18;;;34.30;94.90;;;;;;4994466;28;20065;-67
2023/10/22 09:20:34;;;;;;;143.90;92.65;;;34.30;94.50;;;;;;4994908;28;20498;-66
2023/10/22 09:23:23;;;;;;;142.32;90.55;;;34.30;94.90;;;;;;4994674;28;20046;-67
2023/10/22 09:25:56;;;;;;;146.02;90.90;;;34.30;94.50;;;;;;4994628;28;20100;-66
2023/10/22 09:28:25;;;;;;;156.38;96.85;;;34.20;94.80;;;;;;4994557;28;20022;-67
2023/10/22 09:30:59;;;;;;;146.95;92.07;;;34.20;95.00;;;;;;4994429;28;20018;-66
2023/10/22 09:33:40;;;;;;;147.07;91.70;;;34.20;95.00;;;;;;4994880;28;20022;-66
2023/10/22 09:36:07;;;;;;;152.10;99.25;;;34.20;95.70;;;;;;4994428;28;20026;-65
2023/10/22 09:38:42;;;;;;;157.13;100.50;;;34.10;96.00;;;;;;4994481;28;20022;-65
2023/10/22 09:41:12;;;;;;;169.15;103.60;;;34.10;95.80;;;;;;4994297;28;20475;-65
2023/10/22 09:43:39;;;;;;;173.63;105.10;;;34.00;96.00;;;;;;4994149;28;20026;-65
2023/10/22 09:46:09;;;;;;;152.25;94.35;;;34.00;96.10;;;;;;4994185;28;20092;-65
2023/10/22 09:48:36;;;;;;;147.45;93.45;;;34.00;95.60;;;;;;4994075;28;20089;-65
2023/10/22 09:51:06;;;;;;;154.48;96.13;;;33.90;95.50;;;;;;4994222;28;20041;-65
2023/10/22 09:53:41;;;;;;;158.43;99.32;;;34.00;95.90;;;;;;4994069;28;20030;-65
2023/10/22 09:56:10;;;;;;;156.15;97.40;;;33.90;96.50;;;;;;4994124;28;20041;-65
2023/10/22 09:58:44;;;;;;;142.57;92.10;;;33.90;95.80;;;;;;4993925;28;20031;-65
2023/10/22 10:01:12;;;;;;;141.77;91.25;;;33.90;96.30;;;;;;4994285;28;20427;-65
2023/10/22 10:03:40;;;;;;;155.80;99.13;;;33.90;96.20;;;;;;4994385;28;20101;-65
2023/10/22 10:06:08;;;;;;;175.77;107.32;;;33.80;96.00;;;;;;4994061;28;20085;-65
2023/10/22 10:08:42;;;;;;;173.82;106.28;;;33.80;96.20;;;;;;4994015;28;20046;-65
2023/10/22 10:11:10;;;;;;;180.90;111.72;;;33.80;96.30;;;;;;4993791;28;20030;-65
2023/10/22 10:13:37;;;;;;;173.10;109.07;;;33.80;96.80;;;;;;4993817;28;20022;-66
2023/10/22 10:16:07;;;;;;;168.02;107.05;;;33.80;97.00;;;;;;4992767;28;20062;-65
2023/10/22 10:18:58;;;;;;;162.20;102.07;;;33.70;97.00;;;;;;4992999;28;20035;-65
2023/10/22 10:21:52;;;;;;;177.77;115.40;;;33.60;97.40;;;;;;4993455;28;20430;-65
2023/10/22 10:24:20;;;;;;;155.70;100.03;;;33.60;98.00;;;;;;4991767;28;20113;-64
2023/10/22 10:26:50;;;;;;;160.77;101.05;;;33.60;97.80;;;;;;4993853;28;20113;-69
2023/10/22 10:29:18;;;;;;;138.60;84.38;;;33.60;98.00;;;;;;4993865;28;20078;-64
2023/10/22 10:31:50;;;;;;;133.50;80.63;;;33.50;98.70;;;;;;4993439;28;20501;-64
2023/10/22 10:34:21;;;;;;;;;;;33.40;99.60;;;;;;4993993;28;20426;-65
2023/10/22 10:36:50;;;;;;;107.45;69.85;;;33.30;99.90;;;;;;4993541;28;20384;-65
2023/10/22 10:39:38;;;;;;;106.15;63.65;;;33.30;99.90;;;;;;4993420;28;20061;-65
2023/10/22 10:42:05;;;;;;;107.43;68.80;;;33.20;99.90;;;;;;4993194;28;20058;-65
2023/10/22 10:44:32;;;;;;;109.13;67.47;;;33.10;99.90;;;;;;4993529;28;20105;-64
2023/10/22 10:47:27;;;;;;;104.63;62.33;;;33.10;99.90;;;;;;4993594;28;20022;-65
2023/10/22 10:49:59;;;;;;;93.70;60.53;;;33.10;99.90;;;;;;4993694;28;20488;-64
2023/10/22 10:52:26;;;;;;;92.40;57.17;;;33.00;99.90;;;;;;4993483;28;20034;-64
2023/10/22 10:55:00;;;;;;;101.60;57.15;;;33.00;99.90;;;;;;4993445;28;20448;-64
2023/10/22 10:57:41;;;;;;;100.03;64.13;;;33.00;99.90;;;;;;4993452;28;20034;-64
2023/10/22 11:00:22;;;;;;;109.83;64.83;;;33.00;99.90;;;;;;4993213;28;20053;-63
2023/10/22 11:02:50;;;;;;;98.65;65.10;;;33.00;99.90;;;;;;4993413;28;20031;-64
2023/10/22 11:05:29;;;;;;;93.45;59.08;;;32.90;99.90;;;;;;4993552;28;20018;-62
2023/10/22 11:07:56;;;;;;;95.47;58.83;;;32.80;99.90;;;;;;4993345;28;20018;-63
2023/10/22 11:10:23;;;;;;;89.95;56.72;;;32.80;99.90;;;;;;4993399;28;20034;-64
2023/10/22 11:12:51;;;;;;;93.53;57.20;;;32.80;99.90;;;;;;4993202;28;20026;-65
2023/10/22 11:15:18;;;;;;;98.18;56.92;;;32.80;99.90;;;;;;4993083;28;20121;-64
2023/10/22 11:17:45;;;;;;;109.90;65.05;;;32.70;99.90;;;;;;4993312;28;20035;-64
2023/10/22 11:20:15;;;;;;;92.82;52.15;;;32.60;99.90;;;;;;4993142;28;20109;-65
2023/10/22 11:22:41;;;;;;;66.57;40.67;;;32.50;99.90;;;;;;4993116;28;20076;-64
2023/10/22 11:25:12;;;;;;;62.63;39.60;;;32.40;99.90;;;;;;4993467;28;20046;-65
2023/10/22 11:27:39;;;;;;;71.30;45.47;;;32.30;99.90;;;;;;4994051;28;20026;-64
2023/10/22 11:30:07;;;;;;;65.93;40.97;;;32.30;99.90;;;;;;4996847;28;20069;-65
2023/10/22 11:32:37;;;;;;;62.83;38.75;;;32.20;99.90;;;;;;4996768;28;20058;-64
2023/10/22 11:35:08;;;;;;;59.10;39.83;;;32.10;99.90;;;;;;4996482;28;20553;-63
2023/10/22 11:37:43;;;;;;;58.78;39.03;;;32.10;99.90;;;;;;4996635;28;20053;-64
2023/10/22 11:40:29;;;;;;;71.35;45.72;;;32.10;99.90;;;;;;4996407;28;20023;-64
2023/10/22 11:43:00;;;;;;;73.05;46.10;;;32.00;99.90;;;;;;4996415;28;20031;-64
2023/10/22 11:45:31;;;;;;;69.97;46.00;;;31.90;99.90;;;;;;4996286;28;20022;-65
2023/10/22 11:48:18;;;;;;;90.57;52.05;;;31.90;99.90;;;;;;4996331;28;20027;-63
2023/10/22 11:50:56;;;;;;;87.97;54.35;;;31.90;99.90;;;;;;4996143;28;20029;-63
2023/10/22 11:53:22;;;;;;;89.45;55.38;;;31.80;99.90;;;;;;4996172;28;20125;-64
2023/10/22 11:55:49;;;;;;;96.80;58.92;;;31.80;99.90;;;;;;4996427;28;20073;-65
2023/10/22 11:58:27;;;;;;;97.82;61.17;;;31.80;99.90;;;;;;4996001;28;20113;-62
2023/10/22 12:00:54;;;;;;;101.32;59.92;;;31.70;99.90;;;;;;4996238;28;20471;-64
2023/10/22 12:03:21;;;;;;;99.90;58.08;;;31.70;99.90;;;;;;4995802;28;20030;-64
2023/10/22 12:05:48;;;;;;;100.72;58.78;;;31.70;99.90;;;;;;4995995;28;20093;-64
2023/10/22 12:08:14;;;;;;;103.50;66.22;;;31.70;99.90;;;;;;4995896;28;20030;-64
2023/10/22 12:10:41;;;;;;;109.53;67.07;;;31.60;99.90;;;;;;4995857;28;20460;-64
2023/10/22 12:13:08;;;;;;;120.40;70.97;;;31.60;99.90;;;;;;4995876;28;20109;-64
2023/10/22 12:15:35;;;;;;;104.55;62.78;;;31.60;99.90;;;;;;4995681;28;20511;-64
2023/10/22 12:18:01;;;;;;;104.38;62.08;;;31.50;99.90;;;;;;4995537;28;20035;-64
2023/10/22 12:20:28;;;;;;;80.43;51.75;;;31.60;99.90;;;;;;4995599;28;20029;-64